Time;durP1;ratioP1;P1;durP2;ratioP2;P2;SDS_P1;SDS_P2;PMS_P1;PMS_P2;Temp;Humidity;BMP_temperature;BMP_pressure;BME280_temperature;BME280_humidity;BME280_pressure;Samples;Min_cycle;Max_cycle;Signal;HPM_P1;HPM_P2
2022/04/11 00:02:01;;;;;;;7.97;2.67;;;1.80;99.90;;;;;;5101885;27;20053;-74
2022/04/11 00:04:28;;;;;;;11.00;3.40;;;1.70;99.90;;;;;;5154779;27;20273;-74
2022/04/11 00:06:54;;;;;;;10.82;2.90;;;1.70;99.90;;;;;;5154675;27;20135;-74
2022/04/11 00:09:20;;;;;;;8.90;3.40;;;1.70;99.90;;;;;;5154718;27;20035;-75
2022/04/11 00:11:46;;;;;;;9.35;3.40;;;1.70;99.90;;;;;;5135605;27;20073;-73
2022/04/11 00:14:13;;;;;;;11.98;3.72;;;1.60;99.90;;;;;;5154925;27;20395;-73
2022/04/11 00:16:39;;;;;;;15.02;3.63;;;1.60;99.90;;;;;;5154503;27;20041;-73
2022/04/11 00:19:06;;;;;;;12.18;3.95;;;1.60;99.90;;;;;;5135980;27;20042;-73
2022/04/11 00:21:32;;;;;;;16.50;3.83;;;1.60;99.90;;;;;;5154849;27;20356;-73
2022/04/11 00:23:58;;;;;;;7.38;3.28;;;1.50;99.90;;;;;;5135620;27;20053;-74
2022/04/11 00:26:23;;;;;;;13.10;3.75;;;1.50;99.90;;;;;;5135702;27;20126;-74
2022/04/11 00:28:49;;;;;;;12.30;3.53;;;1.40;99.90;;;;;;5153959;27;20126;-74
2022/04/11 00:31:15;;;;;;;9.77;3.45;;;1.50;99.90;;;;;;5154566;27;20054;-73
2022/04/11 00:33:40;;;;;;;10.15;3.70;;;1.40;99.90;;;;;;5135776;27;20416;-74
2022/04/11 00:36:06;;;;;;;12.18;3.50;;;1.50;99.90;;;;;;5135990;27;20122;-74
2022/04/11 00:38:32;;;;;;;8.10;3.30;;;1.40;99.90;;;;;;5154457;27;20358;-74
2022/04/11 00:40:58;;;;;;;10.05;3.17;;;1.40;99.90;;;;;;5118350;27;20054;-74
2022/04/11 00:43:30;;;;;;;7.45;3.22;;;1.40;99.90;;;;;;5118224;27;20129;-74
2022/04/11 00:45:56;;;;;;;11.45;3.80;;;1.40;99.90;;;;;;5135868;27;20119;-74
2022/04/11 00:48:22;;;;;;;7.90;3.00;;;1.40;99.90;;;;;;5102078;27;20051;-73
2022/04/11 00:50:49;;;;;;;8.65;3.38;;;1.40;99.90;;;;;;5135197;27;20035;-72
2022/04/11 00:53:15;;;;;;;12.30;3.50;;;1.30;99.90;;;;;;5153603;27;20483;-75
2022/04/11 00:55:42;;;;;;;13.07;3.85;;;1.40;99.90;;;;;;5153831;27;20053;-74
2022/04/11 00:58:07;;;;;;;17.23;4.22;;;1.30;99.90;;;;;;5153736;27;20099;-73
2022/04/11 01:00:34;;;;;;;18.02;5.20;;;1.30;99.90;;;;;;5153871;27;20134;-73
2022/04/11 01:03:00;;;;;;;14.57;4.28;;;1.30;99.90;;;;;;5122849;27;20097;-73
2022/04/11 01:05:26;;;;;;;10.65;4.30;;;1.30;99.90;;;;;;5158608;27;20034;-74
2022/04/11 01:07:52;;;;;;;11.75;4.55;;;1.20;99.90;;;;;;5158760;27;20046;-73
2022/04/11 01:10:17;;;;;;;9.93;3.90;;;1.30;99.90;;;;;;5158378;27;20047;-73
2022/04/11 01:12:43;;;;;;;12.30;4.43;;;1.30;99.90;;;;;;5158233;27;20090;-73
2022/04/11 01:15:09;;;;;;;11.43;4.15;;;1.30;99.90;;;;;;5122486;27;20095;-73
2022/04/11 01:17:37;;;;;;;11.00;4.45;;;1.30;99.90;;;;;;5158334;27;20043;-73
2022/04/11 01:20:16;;;;;;;12.73;3.88;;;1.20;99.90;;;;;;5157753;27;20088;-73
2022/04/11 01:22:43;;;;;;;9.13;3.83;;;1.20;99.90;;;;;;5139997;27;20074;-74
2022/04/11 01:25:13;;;;;;;11.95;3.80;;;1.20;99.90;;;;;;5139310;27;20477;-73
2022/04/11 01:27:40;;;;;;;12.50;3.55;;;1.20;99.90;;;;;;5157499;27;20050;-73
2022/04/11 01:30:07;;;;;;;11.10;3.58;;;1.20;99.90;;;;;;5157595;27;20394;-73
2022/04/11 01:32:33;;;;;;;;;;;1.20;99.90;;;;;;5157716;27;20502;-73
2022/04/11 01:34:59;;;;;;;9.57;3.10;;;1.20;99.90;;;;;;5158192;27;19926;-73
2022/04/11 01:37:25;;;;;;;9.05;3.10;;;1.20;99.90;;;;;;5138845;27;20046;-73
2022/04/11 01:39:50;;;;;;;10.50;3.10;;;1.20;99.90;;;;;;5157034;27;20223;-73
2022/04/11 01:42:16;;;;;;;12.40;3.97;;;1.20;99.90;;;;;;5156977;27;20046;-73
2022/04/11 01:44:42;;;;;;;8.95;3.20;;;1.10;99.90;;;;;;5157367;27;20226;-75
2022/04/11 01:47:07;;;;;;;10.60;3.20;;;1.10;99.90;;;;;;5157205;27;20042;-73
2022/04/11 01:49:33;;;;;;;18.02;2.95;;;1.10;99.90;;;;;;5138326;27;20371;-75
2022/04/11 01:51:59;;;;;;;9.88;3.58;;;1.10;99.90;;;;;;5138958;27;20047;-74
2022/04/11 01:54:25;;;;;;;10.48;3.40;;;1.10;99.90;;;;;;5157548;27;20046;-73
2022/04/11 01:56:50;;;;;;;11.48;3.28;;;1.10;99.90;;;;;;5156846;27;20042;-73
2022/04/11 01:59:16;;;;;;;8.73;3.25;;;1.00;99.90;;;;;;5156951;27;20053;-73
2022/04/11 02:01:43;;;;;;;10.05;3.10;;;1.00;99.90;;;;;;5156954;27;20436;-74
2022/04/11 02:04:09;;;;;;;9.30;3.90;;;1.10;99.90;;;;;;5139130;27;20330;-73
2022/04/11 02:06:35;;;;;;;14.95;4.03;;;1.10;99.90;;;;;;5138495;27;20046;-73
2022/04/11 02:09:00;;;;;;;17.77;4.13;;;1.10;99.90;;;;;;5138412;27;20439;-74
2022/04/11 02:11:26;;;;;;;13.18;4.07;;;1.20;99.90;;;;;;5121231;27;20388;-75
2022/04/11 02:13:52;;;;;;;11.13;3.58;;;1.20;99.90;;;;;;5156681;27;20126;-74
2022/04/11 02:16:18;;;;;;;11.25;3.67;;;1.20;99.90;;;;;;5138290;27;20134;-73
2022/04/11 02:18:43;;;;;;;9.70;3.25;;;1.30;99.90;;;;;;5120804;27;20184;-74
2022/04/11 02:21:09;;;;;;;34.90;5.15;;;1.30;99.90;;;;;;5138050;27;20078;-74
2022/04/11 02:23:35;;;;;;;12.25;3.35;;;1.30;99.90;;;;;;5137984;27;20428;-74
2022/04/11 02:26:01;;;;;;;13.45;3.30;;;1.30;99.90;;;;;;5138108;27;20151;-74
2022/04/11 02:28:26;;;;;;;11.00;3.10;;;1.50;99.90;;;;;;5156533;27;20034;-74
2022/04/11 02:30:52;;;;;;;8.30;3.38;;;1.60;99.90;;;;;;5156329;27;20067;-74
2022/04/11 02:33:21;;;;;;;10.75;3.20;;;1.50;99.90;;;;;;5120174;27;20051;-74
2022/04/11 02:35:47;;;;;;;10.15;3.03;;;1.50;99.90;;;;;;5138375;27;20073;-74
2022/04/11 02:38:13;;;;;;;7.47;3.10;;;1.60;99.90;;;;;;5155973;27;20038;-74
2022/04/11 02:40:39;;;;;;;8.75;2.83;;;1.60;99.90;;;;;;5156213;27;20091;-73
2022/04/11 02:43:05;;;;;;;10.65;3.15;;;1.60;99.90;;;;;;5137587;27;20034;-73
2022/04/11 02:45:31;;;;;;;9.85;3.50;;;1.60;99.90;;;;;;5156390;27;20129;-73
2022/04/11 02:47:56;;;;;;;13.15;3.72;;;1.70;99.90;;;;;;5156140;27;20065;-73
2022/04/11 02:50:22;;;;;;;11.00;3.30;;;1.70;99.90;;;;;;5137568;27;20042;-73
2022/04/11 02:52:48;;;;;;;9.95;3.60;;;1.60;99.90;;;;;;5138037;27;20039;-73
2022/04/11 02:55:13;;;;;;;10.15;3.22;;;1.60;99.90;;;;;;5137629;27;20144;-74
2022/04/11 02:57:40;;;;;;;11.88;3.33;;;1.60;99.90;;;;;;5155847;27;20047;-73
2022/04/11 03:00:09;;;;;;;14.55;3.30;;;1.60;99.90;;;;;;5120235;27;20064;-74
2022/04/11 03:02:35;;;;;;;12.32;3.33;;;1.50;99.90;;;;;;5137926;27;20141;-73
2022/04/11 03:05:02;;;;;;;11.82;3.40;;;1.50;99.90;;;;;;5155876;27;20201;-73
2022/04/11 03:07:28;;;;;;;15.25;4.47;;;1.50;99.90;;;;;;5156385;27;20086;-73
2022/04/11 03:09:54;;;;;;;9.10;3.40;;;1.40;99.90;;;;;;5120218;27;20074;-73
2022/04/11 03:12:20;;;;;;;11.97;3.63;;;1.40;99.90;;;;;;5137061;27;20050;-74
2022/04/11 03:14:49;;;;;;;10.50;3.30;;;1.40;99.90;;;;;;5103388;27;20125;-74
2022/04/11 03:17:16;;;;;;;11.48;3.30;;;1.30;99.90;;;;;;5156027;27;20480;-74
2022/04/11 03:19:45;;;;;;;10.55;3.17;;;1.30;99.90;;;;;;5136989;27;20121;-74
2022/04/11 03:22:11;;;;;;;9.15;3.05;;;1.20;99.90;;;;;;5155423;27;20505;-74
2022/04/11 03:24:37;;;;;;;9.68;3.63;;;1.20;99.90;;;;;;5154678;27;20097;-74
2022/04/11 03:27:04;;;;;;;11.20;3.58;;;1.20;99.90;;;;;;5155316;27;20054;-75
2022/04/11 03:29:29;;;;;;;9.65;3.50;;;1.20;99.90;;;;;;5154929;27;20162;-73
2022/04/11 03:31:55;;;;;;;10.18;3.63;;;1.20;99.90;;;;;;5155549;27;20125;-73
2022/04/11 03:34:21;;;;;;;12.32;3.65;;;1.20;99.90;;;;;;5155239;27;20478;-73
2022/04/11 03:36:47;;;;;;;10.25;3.67;;;1.10;99.90;;;;;;5120126;27;20034;-74
2022/04/11 03:39:14;;;;;;;12.55;3.92;;;1.10;99.90;;;;;;5155062;27;20088;-74
2022/04/11 03:41:43;;;;;;;12.50;4.20;;;1.10;99.90;;;;;;5102957;27;20079;-73
2022/04/11 03:44:10;;;;;;;13.35;3.85;;;1.20;99.90;;;;;;5136665;27;20039;-72
2022/04/11 03:46:37;;;;;;;10.52;4.60;;;1.20;99.90;;;;;;5119286;27;20042;-73
2022/04/11 03:49:03;;;;;;;10.90;4.50;;;1.20;99.90;;;;;;5136659;27;20125;-73
2022/04/11 03:51:28;;;;;;;14.20;4.53;;;1.20;99.90;;;;;;5155381;27;20470;-76
2022/04/11 03:53:55;;;;;;;11.63;4.15;;;1.30;99.90;;;;;;5136438;27;20395;-72
2022/04/11 03:56:20;;;;;;;13.65;4.18;;;1.30;99.90;;;;;;5136090;27;20043;-73
2022/04/11 03:58:46;;;;;;;11.10;4.28;;;1.40;99.90;;;;;;5154848;27;20046;-74
2022/04/11 04:01:12;;;;;;;11.07;3.50;;;1.40;99.90;;;;;;5119538;27;20142;-74
2022/04/11 04:03:40;;;;;;;12.75;4.10;;;1.60;99.90;;;;;;5154716;27;20050;-74
2022/04/11 04:06:06;;;;;;;12.25;3.97;;;1.60;99.90;;;;;;5154650;27;20117;-74
2022/04/11 04:08:32;;;;;;;11.27;3.88;;;1.60;99.90;;;;;;5136386;27;20375;-73
2022/04/11 04:10:58;;;;;;;8.68;4.10;;;1.60;99.90;;;;;;5154620;27;20042;-74
2022/04/11 04:13:24;;;;;;;9.52;3.65;;;1.70;99.90;;;;;;5118764;27;20467;-74
2022/04/11 04:15:50;;;;;;;10.38;3.80;;;1.70;99.90;;;;;;5154528;27;20046;-73
2022/04/11 04:18:16;;;;;;;12.50;3.60;;;1.80;99.90;;;;;;5154334;27;20046;-74
2022/04/11 04:20:42;;;;;;;13.10;3.53;;;1.80;99.90;;;;;;5154452;27;20047;-74
2022/04/11 04:23:08;;;;;;;10.30;3.65;;;1.90;99.90;;;;;;5101990;27;20125;-74
2022/04/11 04:25:35;;;;;;;10.88;3.95;;;2.00;99.90;;;;;;5135876;27;20420;-74
2022/04/11 04:28:02;;;;;;;9.40;3.25;;;2.00;99.90;;;;;;5154022;27;20046;-74
2022/04/11 04:30:31;;;;;;;8.55;3.53;;;2.00;99.90;;;;;;5135677;27;20051;-75
2022/04/11 04:32:57;;;;;;;10.48;3.75;;;2.00;99.90;;;;;;5153951;27;20085;-74
2022/04/11 04:35:23;;;;;;;15.40;4.20;;;2.00;99.90;;;;;;5154113;27;20379;-76
2022/04/11 04:37:50;;;;;;;9.25;3.63;;;2.10;99.90;;;;;;5118722;27;20054;-76
2022/04/11 04:40:15;;;;;;;13.02;3.40;;;2.10;99.90;;;;;;5135627;27;20098;-76
2022/04/11 04:42:41;;;;;;;12.73;3.72;;;2.20;99.90;;;;;;5154055;27;20046;-73
2022/04/11 04:45:07;;;;;;;12.85;4.43;;;2.20;99.90;;;;;;5135057;27;20038;-73
2022/04/11 04:47:33;;;;;;;10.25;4.38;;;2.20;99.90;;;;;;5135613;27;20171;-73
2022/04/11 04:49:59;;;;;;;14.45;4.93;;;2.30;99.90;;;;;;5135445;27;20125;-73
2022/04/11 04:52:25;;;;;;;15.68;7.82;;;2.30;99.90;;;;;;5135765;27;20129;-73
2022/04/11 04:54:50;;;;;;;16.02;7.07;;;2.30;99.90;;;;;;5119055;27;20047;-73
2022/04/11 04:57:16;;;;;;;19.70;8.10;;;2.30;99.90;;;;;;5135601;27;20103;-73
2022/04/11 04:59:42;;;;;;;17.92;7.20;;;2.40;99.90;;;;;;5153951;27;20043;-74
2022/04/11 05:02:08;;;;;;;15.82;6.32;;;2.40;99.90;;;;;;5135826;27;20459;-74
2022/04/11 05:04:34;;;;;;;16.02;6.40;;;2.40;99.90;;;;;;5153968;27;20053;-74
2022/04/11 05:07:00;;;;;;;19.35;6.25;;;2.50;99.90;;;;;;5118644;27;20130;-74
2022/04/11 05:09:25;;;;;;;16.80;6.07;;;2.50;99.90;;;;;;5118454;27;20144;-73
2022/04/11 05:11:51;;;;;;;15.70;5.90;;;2.60;99.90;;;;;;5134966;27;20053;-74
2022/04/11 05:14:17;;;;;;;14.80;5.63;;;2.60;99.90;;;;;;5135232;27;20134;-73
2022/04/11 05:16:43;;;;;;;17.55;7.85;;;2.60;99.90;;;;;;5154219;27;20074;-74
2022/04/11 05:19:09;;;;;;;18.92;8.57;;;2.60;99.90;;;;;;5118961;27;20046;-74
2022/04/11 05:21:35;;;;;;;25.92;11.63;;;2.70;99.90;;;;;;5135790;27;20390;-74
2022/04/11 05:24:01;;;;;;;33.15;15.57;;;2.70;99.90;;;;;;5155122;27;20408;-75
2022/04/11 05:26:26;;;;;;;55.70;26.23;;;2.70;99.90;;;;;;5118556;27;20061;-75
2022/04/11 05:28:52;;;;;;;38.22;16.48;;;2.80;99.90;;;;;;5134860;27;20051;-74
2022/04/11 05:31:18;;;;;;;34.05;16.27;;;2.90;99.90;;;;;;5131225;27;20517;-74
2022/04/11 05:33:47;;;;;;;35.50;17.70;;;2.90;99.90;;;;;;5133769;27;20135;-74
2022/04/11 05:36:14;;;;;;;26.05;12.52;;;3.00;99.90;;;;;;5131844;28;20035;-75
2022/04/11 05:38:40;;;;;;;15.68;7.07;;;3.10;99.90;;;;;;5133097;27;20175;-74
2022/04/11 05:41:06;;;;;;;81.30;42.67;;;3.10;99.90;;;;;;5132985;27;20118;-75
2022/04/11 05:43:32;;;;;;;124.88;71.43;;;3.10;99.90;;;;;;5132710;28;20131;-74
2022/04/11 05:45:59;;;;;;;89.47;53.08;;;3.20;99.90;;;;;;5132955;28;20039;-74
2022/04/11 05:48:25;;;;;;;13.10;5.97;;;3.20;99.90;;;;;;5135124;27;20125;-74
2022/04/11 05:50:50;;;;;;;13.98;5.55;;;3.30;99.90;;;;;;5135410;27;20522;-75
2022/04/11 05:53:18;;;;;;;14.65;7.70;;;3.40;99.90;;;;;;5136104;27;20051;-74
2022/04/11 05:55:43;;;;;;;16.13;10.10;;;3.40;99.90;;;;;;5135789;27;20355;-75
2022/04/11 05:58:09;;;;;;;14.00;5.60;;;3.40;99.90;;;;;;5135344;27;20134;-74
2022/04/11 06:00:35;;;;;;;13.75;5.60;;;3.50;99.90;;;;;;5118113;27;20054;-74
2022/04/11 06:03:01;;;;;;;14.93;7.45;;;3.60;99.90;;;;;;5117831;27;20043;-74
2022/04/11 06:05:26;;;;;;;15.10;7.28;;;3.60;99.90;;;;;;5135212;27;20042;-74
2022/04/11 06:07:52;;;;;;;18.60;7.15;;;3.70;99.90;;;;;;5136190;27;20394;-74
2022/04/11 06:10:18;;;;;;;15.48;5.75;;;3.70;99.90;;;;;;5135735;27;20343;-74
2022/04/11 06:12:44;;;;;;;13.85;5.15;;;3.80;99.90;;;;;;5134715;27;20046;-73
2022/04/11 06:15:11;;;;;;;12.77;4.60;;;3.80;99.90;;;;;;5136444;27;20047;-74
2022/04/11 06:17:37;;;;;;;14.52;4.97;;;3.80;99.90;;;;;;5136374;27;20047;-74
2022/04/11 06:20:04;;;;;;;14.55;5.10;;;3.90;99.90;;;;;;5135963;27;20035;-74
2022/04/11 06:22:29;;;;;;;13.10;5.07;;;4.00;99.90;;;;;;5135933;27;20398;-73
2022/04/11 06:25:00;;;;;;;16.50;5.40;;;4.10;99.90;;;;;;5134693;27;20055;-74
2022/04/11 06:27:26;;;;;;;16.95;5.65;;;4.30;99.90;;;;;;5135737;27;20050;-74
2022/04/11 06:29:56;;;;;;;12.48;4.90;;;4.40;99.90;;;;;;5134442;27;20067;-74
2022/04/11 06:32:32;;;;;;;14.75;5.30;;;4.40;99.90;;;;;;5134912;27;20059;-75
2022/04/11 06:34:59;;;;;;;14.93;5.60;;;4.50;99.90;;;;;;5135820;27;20087;-74
2022/04/11 06:37:25;;;;;;;16.80;5.63;;;4.60;99.90;;;;;;5134420;27;20043;-74
2022/04/11 06:39:52;;;;;;;13.48;5.63;;;4.70;99.90;;;;;;5135761;27;20039;-74
2022/04/11 06:42:18;;;;;;;14.32;5.20;;;4.80;99.90;;;;;;5136196;27;20047;-75
2022/04/11 06:44:44;;;;;;;15.40;6.10;;;4.90;99.90;;;;;;5134543;27;20092;-74
2022/04/11 06:47:09;;;;;;;16.23;5.75;;;5.00;99.90;;;;;;5134155;27;20039;-74
2022/04/11 06:49:36;;;;;;;15.38;5.97;;;5.10;99.90;;;;;;5135551;27;20505;-74
2022/04/11 06:52:02;;;;;;;12.70;5.97;;;5.10;99.90;;;;;;5135989;27;20443;-75
2022/04/11 06:54:28;;;;;;;15.30;6.40;;;5.20;99.90;;;;;;5117060;27;20288;-74
2022/04/11 06:56:54;;;;;;;18.48;7.15;;;5.30;99.90;;;;;;5135183;27;20051;-74
2022/04/11 06:59:19;;;;;;;13.57;6.05;;;5.40;99.90;;;;;;5115425;27;20035;-74
2022/04/11 07:01:45;;;;;;;18.42;6.32;;;5.40;99.90;;;;;;5117572;27;20039;-73
2022/04/11 07:04:11;;;;;;;16.42;6.40;;;5.60;99.90;;;;;;5135705;27;20047;-73
2022/04/11 07:06:37;;;;;;;16.65;6.53;;;5.60;99.90;;;;;;5135238;27;20047;-73
2022/04/11 07:09:02;;;;;;;18.40;6.65;;;5.70;99.90;;;;;;5134999;27;20039;-73
2022/04/11 07:11:31;;;;;;;15.98;6.25;;;5.80;99.90;;;;;;5133620;27;20428;-75
2022/04/11 07:13:57;;;;;;;17.50;6.53;;;6.00;99.90;;;;;;5134753;27;20494;-74
2022/04/11 07:16:24;;;;;;;13.77;6.80;;;6.00;99.90;;;;;;5135372;27;20043;-73
2022/04/11 07:18:51;;;;;;;13.80;6.72;;;6.10;99.90;;;;;;5134023;27;20047;-73
2022/04/11 07:21:17;;;;;;;16.85;6.90;;;6.30;99.90;;;;;;5134964;27;20059;-73
2022/04/11 07:23:45;;;;;;;17.70;6.70;;;6.30;99.90;;;;;;5133073;27;20100;-73
2022/04/11 07:26:11;;;;;;;17.13;6.73;;;6.40;99.90;;;;;;5134787;27;20055;-74
2022/04/11 07:28:37;;;;;;;20.73;7.25;;;6.50;99.90;;;;;;5133514;27;20054;-73
2022/04/11 07:31:03;;;;;;;17.58;7.43;;;6.60;99.90;;;;;;5148533;27;20059;-74
2022/04/11 07:33:29;;;;;;;16.70;6.35;;;6.80;99.90;;;;;;5155903;27;20046;-72
2022/04/11 07:35:54;;;;;;;18.45;7.30;;;6.80;99.90;;;;;;5155384;27;20390;-73
2022/04/11 07:38:20;;;;;;;15.30;6.25;;;6.90;99.90;;;;;;5155282;27;20047;-75
2022/04/11 07:40:46;;;;;;;14.93;6.82;;;7.00;99.90;;;;;;5119477;27;20081;-73
2022/04/11 07:43:12;;;;;;;17.65;7.40;;;7.10;99.90;;;;;;5119434;27;20050;-73
2022/04/11 07:45:38;;;;;;;18.00;7.03;;;7.30;99.90;;;;;;5155175;27;20088;-75
2022/04/11 07:48:04;;;;;;;17.58;7.20;;;7.30;99.90;;;;;;5119448;27;20054;-74
2022/04/11 07:50:30;;;;;;;14.88;6.70;;;7.40;99.90;;;;;;5137348;27;20047;-74
2022/04/11 07:52:55;;;;;;;17.10;6.70;;;7.50;99.90;;;;;;5136559;27;20043;-74
2022/04/11 07:55:21;;;;;;;17.50;6.97;;;7.60;99.90;;;;;;5155076;27;20080;-73
2022/04/11 07:57:47;;;;;;;18.23;7.18;;;7.70;99.90;;;;;;5154833;27;20509;-73
2022/04/11 08:00:14;;;;;;;19.92;6.93;;;7.90;99.90;;;;;;5136354;27;20474;-73
2022/04/11 08:02:40;;;;;;;16.40;7.15;;;8.00;99.90;;;;;;5119136;27;20046;-74
2022/04/11 08:05:06;;;;;;;22.10;7.65;;;8.20;99.90;;;;;;5119416;27;20107;-73
2022/04/11 08:07:35;;;;;;;15.35;7.03;;;8.30;99.90;;;;;;5155223;27;20047;-73
2022/04/11 08:10:06;;;;;;;14.68;6.82;;;8.40;99.90;;;;;;5136594;27;20050;-76
2022/04/11 08:12:32;;;;;;;16.17;7.03;;;8.50;99.90;;;;;;5119042;27;20046;-73
2022/04/11 08:14:59;;;;;;;15.87;6.70;;;8.60;99.90;;;;;;5155016;27;20091;-74
2022/04/11 08:17:25;;;;;;;12.93;6.63;;;8.70;99.90;;;;;;5119657;27;20042;-74
2022/04/11 08:19:51;;;;;;;14.68;6.93;;;8.80;99.90;;;;;;5135971;27;20076;-74
2022/04/11 08:22:17;;;;;;;17.50;7.18;;;8.90;99.90;;;;;;5154546;27;20278;-74
2022/04/11 08:24:43;;;;;;;20.27;9.27;;;9.00;99.90;;;;;;5136031;27;20043;-74
2022/04/11 08:27:08;;;;;;;16.02;7.53;;;9.10;99.90;;;;;;5136027;27;20129;-74
2022/04/11 08:29:34;;;;;;;19.52;8.00;;;9.20;99.90;;;;;;5136437;27;20141;-74
2022/04/11 08:32:00;;;;;;;21.15;9.63;;;9.40;99.90;;;;;;5154736;27;20058;-74
2022/04/11 08:34:26;;;;;;;15.35;7.63;;;9.50;99.90;;;;;;5153954;27;20042;-75
2022/04/11 08:36:51;;;;;;;16.02;7.97;;;9.60;99.90;;;;;;5135750;27;20067;-74
2022/04/11 08:39:17;;;;;;;17.52;8.63;;;9.70;99.90;;;;;;5136326;27;20508;-74
2022/04/11 08:41:43;;;;;;;20.90;8.32;;;9.70;99.90;;;;;;5118113;27;20443;-75
2022/04/11 08:44:09;;;;;;;19.10;7.55;;;9.80;99.90;;;;;;5118551;27;20053;-76
2022/04/11 08:46:35;;;;;;;18.10;7.60;;;9.90;99.90;;;;;;5135667;27;20046;-75
2022/04/11 08:49:04;;;;;;;20.88;8.50;;;10.00;99.90;;;;;;5118876;27;20108;-76
2022/04/11 08:51:32;;;;;;;19.30;8.00;;;10.00;99.90;;;;;;5135497;27;20103;-74
2022/04/11 08:54:03;;;;;;;23.38;8.40;;;10.10;99.90;;;;;;5118148;27;20058;-74
2022/04/11 08:56:29;;;;;;;16.95;8.15;;;10.20;99.90;;;;;;5135643;27;20046;-81
2022/04/11 08:58:55;;;;;;;16.55;7.95;;;10.40;99.90;;;;;;5154255;27;20562;-75
2022/04/11 09:01:22;;;;;;;17.40;7.80;;;10.50;99.90;;;;;;5118757;27;20047;-75
2022/04/11 09:03:48;;;;;;;15.55;6.88;;;10.60;99.90;;;;;;5154228;27;20474;-74
2022/04/11 09:06:15;;;;;;;16.80;8.05;;;10.80;99.90;;;;;;5135364;27;20053;-74
2022/04/11 09:08:46;;;;;;;18.23;7.95;;;10.90;99.90;;;;;;5135239;27;20050;-74
2022/04/11 09:11:12;;;;;;;15.80;7.90;;;10.90;99.90;;;;;;5118313;27;20046;-74
2022/04/11 09:14:00;;;;;;;18.55;8.73;;;10.90;99.90;;;;;;5153595;27;20042;-73
2022/04/11 09:16:26;;;;;;;18.00;8.45;;;10.80;99.90;;;;;;5135460;27;20047;-74
2022/04/11 09:18:54;;;;;;;19.07;8.80;;;10.80;99.90;;;;;;5135180;27;20051;-75
2022/04/11 09:21:22;;;;;;;18.67;7.90;;;10.70;99.90;;;;;;5153882;27;20451;-74
2022/04/11 09:23:50;;;;;;;18.15;8.77;;;10.60;99.90;;;;;;5139090;27;20266;-74
2022/04/11 09:26:20;;;;;;;15.85;8.20;;;10.50;99.90;;;;;;5157996;27;20043;-74
2022/04/11 09:29:12;;;;;;;19.00;8.98;;;10.50;99.90;;;;;;5139769;27;20135;-74
2022/04/11 09:31:39;;;;;;;17.50;8.40;;;10.50;99.90;;;;;;5133826;27;20536;-77
2022/04/11 09:34:22;;;;;;;22.85;8.75;;;10.50;99.90;;;;;;5139250;27;20119;-74
2022/04/11 09:36:50;;;;;;;18.45;8.95;;;10.50;99.90;;;;;;5122649;27;20368;-74
2022/04/11 09:39:30;;;;;;;14.27;7.60;;;10.60;99.90;;;;;;5139136;27;20059;-74
2022/04/11 09:41:57;;;;;;;18.90;8.02;;;10.70;99.90;;;;;;5157928;27;20039;-74
2022/04/11 09:44:22;;;;;;;19.85;8.60;;;10.80;99.90;;;;;;5139306;27;20043;-75
2022/04/11 09:46:49;;;;;;;19.73;9.02;;;10.70;99.90;;;;;;5157359;27;20065;-73
2022/04/11 09:49:16;;;;;;;22.60;9.18;;;10.80;99.90;;;;;;5123070;27;20074;-75
2022/04/11 09:52:04;;;;;;;18.67;8.50;;;10.80;99.90;;;;;;5138997;27;20054;-74
2022/04/11 09:54:31;;;;;;;16.30;8.95;;;10.80;99.90;;;;;;5157756;27;20364;-74
2022/04/11 09:57:01;;;;;;;16.83;8.52;;;10.90;99.90;;;;;;5122143;27;20363;-75
2022/04/11 09:59:27;;;;;;;15.13;7.20;;;10.80;99.90;;;;;;5157421;27;20103;-76
2022/04/11 10:01:54;;;;;;;17.37;8.23;;;11.00;99.90;;;;;;5138586;27;20082;-75
2022/04/11 10:04:21;;;;;;;17.98;7.93;;;11.10;99.90;;;;;;5138811;27;20042;-74
2022/04/11 10:06:48;;;;;;;17.53;8.73;;;11.10;99.90;;;;;;5157282;27;20313;-74
2022/04/11 10:09:14;;;;;;;34.50;14.18;;;11.10;99.90;;;;;;5157908;27;20077;-75
2022/04/11 10:11:46;;;;;;;25.27;11.20;;;11.30;99.90;;;;;;5138279;27;20134;-75
2022/04/11 10:14:23;;;;;;;28.30;12.38;;;11.30;99.90;;;;;;5157697;27;20059;-75
2022/04/11 10:16:51;;;;;;;17.02;8.07;;;11.30;99.90;;;;;;5138167;27;20099;-76
2022/04/11 10:19:26;;;;;;;18.45;8.85;;;11.40;99.90;;;;;;5139108;27;20153;-76
2022/04/11 10:21:54;;;;;;;19.63;7.85;;;11.40;99.90;;;;;;5138635;27;20131;-76
2022/04/11 10:25:06;;;;;;;31.98;12.23;;;11.50;99.90;;;;;;5138597;27;20412;-75
2022/04/11 10:27:33;;;;;;;18.10;8.10;;;11.70;99.90;;;;;;5130785;27;20051;-75
2022/04/11 10:30:02;;;;;;;22.42;9.10;;;11.70;99.90;;;;;;5137731;27;20458;-75
2022/04/11 10:32:29;;;;;;;15.57;8.32;;;11.60;99.90;;;;;;5138033;27;20374;-76
2022/04/11 10:35:01;;;;;;;16.25;7.95;;;11.90;99.10;;;;;;5103940;27;20089;-74
2022/04/11 10:37:48;;;;;;;16.73;8.05;;;11.80;99.90;;;;;;5138675;27;20470;-74
2022/04/11 10:40:16;;;;;;;19.80;8.68;;;11.90;99.20;;;;;;5120563;27;20324;-76
2022/04/11 10:43:01;;;;;;;18.60;8.30;;;11.90;99.90;;;;;;5156393;27;20074;-80
2022/04/11 10:45:36;;;;;;;15.05;7.28;;;11.90;99.30;;;;;;5156826;27;20047;-77
2022/04/11 10:48:03;;;;;;;17.45;8.20;;;12.00;96.60;;;;;;5138365;27;20062;-76
2022/04/11 10:50:34;;;;;;;18.42;8.30;;;12.10;99.00;;;;;;5121106;27;20050;-76
2022/04/11 10:53:12;;;;;;;24.45;8.00;;;12.10;99.90;;;;;;5137772;27;20517;-75
2022/04/11 10:55:57;;;;;;;17.88;8.27;;;12.20;95.10;;;;;;5138405;27;20134;-75
2022/04/11 10:58:51;;;;;;;17.25;7.75;;;12.20;97.20;;;;;;5137567;27;20051;-77
2022/04/11 11:01:49;;;;;;;18.48;7.40;;;12.30;95.90;;;;;;5120882;27;20094;-76
2022/04/11 11:04:19;;;;;;;17.23;7.68;;;12.50;97.90;;;;;;5138507;27;20086;-76
2022/04/11 11:06:45;;;;;;;19.15;7.90;;;12.60;97.80;;;;;;5119991;27;20046;-81
2022/04/11 11:09:19;;;;;;;16.70;7.93;;;12.60;98.90;;;;;;5156326;27;20046;-75
2022/04/11 11:11:46;;;;;;;16.73;7.93;;;12.70;96.00;;;;;;5137191;27;20099;-75
2022/04/11 11:14:30;;;;;;;;;;;12.70;96.10;;;;;;5138047;27;20047;-75
2022/04/11 11:16:58;;;;;;;19.90;7.97;;;12.60;94.40;;;;;;5156197;27;19923;-75
2022/04/11 11:19:24;;;;;;;20.15;9.27;;;12.70;99.00;;;;;;5119548;27;20035;-74
2022/04/11 11:21:56;;;;;;;19.30;9.07;;;12.80;92.70;;;;;;5120130;27;20045;-75
2022/04/11 11:24:22;;;;;;;24.67;9.20;;;12.80;95.40;;;;;;5137052;27;20039;-75
2022/04/11 11:26:57;;;;;;;16.42;8.38;;;12.70;86.70;;;;;;5119381;27;20110;-75
2022/04/11 11:29:28;;;;;;;21.38;10.18;;;12.80;91.50;;;;;;5119984;27;20053;-74
2022/04/11 11:31:59;;;;;;;18.23;8.32;;;12.80;92.20;;;;;;5132909;27;20134;-74
2022/04/11 11:34:30;;;;;;;18.52;8.48;;;12.80;95.50;;;;;;5134896;27;20039;-78
2022/04/11 11:36:58;;;;;;;24.33;10.77;;;12.90;88.40;;;;;;5133999;27;20058;-76
2022/04/11 11:39:28;;;;;;;19.80;9.00;;;12.90;90.40;;;;;;5116469;27;20051;-75
2022/04/11 11:41:59;;;;;;;20.98;10.68;;;12.80;88.70;;;;;;5116902;27;20051;-75
2022/04/11 11:44:24;;;;;;;19.25;11.20;;;12.80;90.00;;;;;;5133949;27;20047;-76
2022/04/11 11:46:53;;;;;;;24.20;10.63;;;12.70;88.30;;;;;;5132707;27;20039;-76
2022/04/11 11:49:20;;;;;;;22.52;11.32;;;12.80;92.80;;;;;;5116104;27;20050;-75
2022/04/11 11:51:46;;;;;;;19.65;10.88;;;12.90;90.40;;;;;;5134247;27;20070;-75
2022/04/11 11:54:13;;;;;;;18.30;10.02;;;12.90;92.10;;;;;;5116228;27;20123;-75
2022/04/11 11:56:40;;;;;;;25.23;11.10;;;12.90;92.70;;;;;;5116040;27;20395;-74
2022/04/11 11:59:05;;;;;;;22.88;11.32;;;13.00;94.70;;;;;;5133259;27;20050;-75
2022/04/11 12:01:31;;;;;;;22.50;11.52;;;13.00;88.50;;;;;;5132951;27;20043;-74
2022/04/11 12:06:42;;;;;;;19.42;11.48;;;13.20;96.80;;;;;;5133485;27;20448;-75
2022/04/11 12:09:08;;;;;;;21.73;11.23;;;13.20;91.60;;;;;;5132890;27;20072;-75
2022/04/11 12:11:34;;;;;;;22.02;11.95;;;13.10;90.10;;;;;;5132735;27;20043;-80
2022/04/11 12:14:01;;;;;;;14.30;7.90;;;13.10;91.00;;;;;;5133441;27;20061;-76
2022/04/11 12:16:29;;;;;;;20.02;10.82;;;13.30;91.10;;;;;;5133116;27;20054;-75
2022/04/11 12:18:56;;;;;;;23.42;10.82;;;13.20;85.10;;;;;;5133685;27;20083;-77
2022/04/11 12:21:37;;;;;;;20.73;11.80;;;13.20;88.20;;;;;;5133009;27;20047;-75
2022/04/11 12:24:05;;;;;;;23.80;12.40;;;13.20;91.50;;;;;;5133544;27;20047;-74
2022/04/11 12:26:37;;;;;;;24.65;12.63;;;13.30;92.70;;;;;;5133929;27;20043;-79
2022/04/11 12:29:10;;;;;;;25.17;12.68;;;13.30;95.90;;;;;;5133834;27;20051;-75
2022/04/11 12:31:39;;;;;;;26.38;13.25;;;13.40;92.00;;;;;;5146162;27;20054;-78
2022/04/11 12:34:12;;;;;;;24.33;12.80;;;13.40;92.80;;;;;;5135920;27;20051;-75
2022/04/11 12:37:01;;;;;;;25.50;14.25;;;13.30;94.30;;;;;;5118773;27;20167;-74
2022/04/11 12:39:27;;;;;;;23.33;12.20;;;13.30;92.30;;;;;;5154877;27;20054;-75
2022/04/11 12:41:53;;;;;;;24.63;12.50;;;13.40;94.90;;;;;;5154419;27;20078;-76
2022/04/11 12:44:49;;;;;;;28.67;14.00;;;13.50;93.30;;;;;;5118634;27;20151;-75
2022/04/11 12:47:15;;;;;;;27.67;13.15;;;13.60;94.10;;;;;;5150730;27;20050;-74
2022/04/11 12:49:52;;;;;;;25.98;13.23;;;13.80;91.90;;;;;;5136309;27;20039;-75